createdAt,value
2023-01-04T00:02:20.429Z,100001.28
2023-01-04T00:04:47.358Z,100005.50
2023-01-04T00:07:14.181Z,100000.19
2023-01-04T00:09:40.803Z,99991.38
2023-01-04T00:12:07.682Z,99990.75
2023-01-04T00:14:34.579Z,99982.41
2023-01-04T00:17:01.233Z,99981.38
2023-01-04T00:19:27.890Z,99976.81
2023-01-04T00:21:55.134Z,99987.09
2023-01-04T00:24:21.938Z,99979.19
2023-01-04T00:26:48.593Z,99976.66
2023-01-04T00:29:15.316Z,99966.47
2023-01-04T00:31:44.843Z,99963.88
2023-01-04T00:34:14.938Z,99961.38
2023-01-04T00:36:42.161Z,99960.44
2023-01-04T00:39:15.142Z,99960.25
2023-01-04T00:42:01.909Z,99961.00
2023-01-04T00:44:29.655Z,99959.34
2023-01-04T00:46:57.095Z,99958.41
2023-01-04T00:49:23.927Z,99944.72
2023-01-04T00:51:50.910Z,99941.66
2023-01-04T00:54:18.065Z,99942.47
2023-01-04T00:56:45.220Z,99929.53
2023-01-04T00:59:16.543Z,99925.81
2023-01-04T01:01:44.368Z,99927.69
2023-01-04T01:04:16.077Z,99931.78
2023-01-04T01:06:42.817Z,99917.25
2023-01-04T01:09:10.244Z,99927.44
2023-01-04T01:11:38.605Z,99922.00
2023-01-04T01:14:05.821Z,99919.53
2023-01-04T01:16:53.812Z,99916.34
2023-01-04T01:19:20.112Z,99915.31
2023-01-04T01:21:46.746Z,99916.91
2023-01-04T01:24:18.452Z,99914.84
2023-01-04T01:26:45.293Z,99917.00
2023-01-04T01:29:12.079Z,99907.84
2023-01-04T01:31:38.981Z,99909.81
2023-01-04T01:34:05.904Z,99914.47
2023-01-04T01:36:32.641Z,99904.03
2023-01-04T01:38:59.601Z,99901.25
2023-01-04T01:41:31.753Z,99886.13
2023-01-04T01:44:04.608Z,99893.06
2023-01-04T01:46:45.819Z,99882.06
2023-01-04T01:49:34.091Z,99871.97
2023-01-04T01:52:04.429Z,99873.47
2023-01-04T01:54:35.329Z,99882.63
2023-01-04T01:57:04.376Z,99877.59
2023-01-04T01:59:33.097Z,99875.34
2023-01-04T02:02:00.035Z,99876.25
2023-01-04T02:04:27.548Z,99871.97
2023-01-04T02:06:58.172Z,99858.94
2023-01-04T02:09:25.264Z,99860.81
2023-01-04T02:11:51.909Z,99860.91
2023-01-04T02:14:29.147Z,99863.44
2023-01-04T02:17:33.374Z,99854.31
2023-01-04T02:20:13.045Z,99849.16
2023-01-04T02:23:21.955Z,99843.47
2023-01-04T02:26:27.869Z,99840.28
2023-01-04T02:29:53.533Z,99844.31
2023-01-04T02:32:20.338Z,99837.22
2023-01-04T02:34:58.846Z,99829.47
2023-01-04T02:37:47.316Z,99825.97
2023-01-04T02:40:45.610Z,99817.38
2023-01-04T02:43:52.120Z,99804.25
2023-01-04T02:46:29.732Z,99799.66
2023-01-04T02:49:18.395Z,99799.88
2023-01-04T02:51:45.306Z,99792.63
2023-01-04T02:54:19.335Z,99793.94
2023-01-04T02:57:09.417Z,99781.16
2023-01-04T03:00:30.703Z,99758.19
2023-01-04T03:03:27.344Z,99759.50
2023-01-04T03:06:17.162Z,99751.84
2023-01-04T03:09:13.131Z,99745.41
2023-01-04T03:12:09.268Z,99740.09
2023-01-04T03:14:44.538Z,99738.47
2023-01-04T03:17:13.858Z,99726.59
2023-01-04T03:19:55.562Z,99727.16
2023-01-04T03:22:58.523Z,99722.25
2023-01-04T03:25:51.064Z,99705.09
2023-01-04T03:28:36.789Z,99700.97
2023-01-04T03:31:33.080Z,99707.41
2023-01-04T03:34:18.543Z,99701.19
2023-01-04T03:36:59.446Z,99699.84
2023-01-04T03:40:00.623Z,99697.22
2023-01-04T03:43:24.804Z,99691.91
2023-01-04T03:46:15.892Z,99693.03
2023-01-04T03:48:48.922Z,99696.19
2023-01-04T03:51:27.123Z,99691.91
2023-01-04T03:54:04.988Z,99680.66
2023-01-04T03:56:33.069Z,99678.88
2023-01-04T03:59:00.642Z,99665.53
2023-01-04T04:01:28.368Z,99657.59
2023-01-04T04:04:14.713Z,99650.50
2023-01-04T04:07:00.154Z,99648.63
2023-01-04T04:09:27.655Z,99655.50
2023-01-04T04:11:54.716Z,99642.34
2023-01-04T04:14:21.317Z,99646.34
2023-01-04T04:16:48.127Z,99640.25
2023-01-04T04:19:14.821Z,99640.25
2023-01-04T04:21:41.472Z,99627.91
2023-01-04T04:24:16.417Z,99612.16
2023-01-04T04:26:43.466Z,99620.59
2023-01-04T04:29:10.685Z,99622.50
2023-01-04T04:31:37.443Z,99616.84
2023-01-04T04:34:04.297Z,99625.41
2023-01-04T04:36:31.181Z,99621.63
2023-01-04T04:38:58.053Z,99612.47
2023-01-04T04:41:39.960Z,99611.94
2023-01-04T04:44:16.735Z,99613.28
2023-01-04T04:46:44.132Z,99611.69
2023-01-04T04:49:12.119Z,99599.25
2023-01-04T04:51:39.024Z,99607.44
2023-01-04T04:54:07.258Z,99599.06
2023-01-04T04:56:35.195Z,99591.16
2023-01-04T04:59:02.026Z,99574.63
2023-01-04T05:01:29.320Z,99580.28
2023-01-04T05:03:56.489Z,99573.38
2023-01-04T05:06:23.256Z,99572.53
2023-01-04T05:08:50.922Z,99572.44
2023-01-04T05:11:38.334Z,99567.72
2023-01-04T05:14:05.665Z,99568.56
2023-01-04T05:16:32.667Z,99566.19
2023-01-04T05:18:59.564Z,99559.56
2023-01-04T05:21:26.409Z,99569.31
2023-01-04T05:23:54.484Z,99553.88
2023-01-04T05:26:22.312Z,99546.50
2023-01-04T05:28:53.613Z,99541.53
2023-01-04T05:31:20.811Z,99540.81
2023-01-04T05:33:47.540Z,99539.94
2023-01-04T05:36:14.507Z,99542.25
2023-01-04T05:38:41.388Z,99539.34
2023-01-04T05:41:28.277Z,99523.59
2023-01-04T05:43:55.957Z,99532.03
2023-01-04T05:46:23.078Z,99521.34
2023-01-04T05:48:50.132Z,99528.13
2023-01-04T05:51:17.076Z,99524.69
2023-01-04T05:53:43.911Z,99514.88
2023-01-04T05:56:10.527Z,99521.16
2023-01-04T05:58:37.216Z,99517.31
2023-01-04T06:01:04.291Z,99513.94
2023-01-04T06:03:31.044Z,99514.25
2023-01-04T06:05:57.776Z,99525.84
2023-01-04T06:08:24.369Z,99521.25
2023-01-04T06:10:54.842Z,99511.13
2023-01-04T06:13:21.962Z,99514.25
2023-01-04T06:15:50.844Z,99514.63
2023-01-04T06:18:19.086Z,99510.69
2023-01-04T06:20:45.968Z,99501.00
2023-01-04T06:23:12.962Z,99483.34
2023-01-04T06:25:39.967Z,99476.00
2023-01-04T06:28:08.148Z,99469.00
2023-01-04T06:30:35.881Z,99460.56
2023-01-04T06:33:02.600Z,99455.84
2023-01-04T06:35:29.359Z,99456.78
2023-01-04T06:37:56.176Z,99453.22
2023-01-04T06:40:22.976Z,99448.09
2023-01-04T06:42:49.748Z,99451.31
2023-01-04T06:45:17.856Z,99447.56
2023-01-04T06:47:44.781Z,99451.81
2023-01-04T06:50:12.778Z,99444.28
2023-01-04T06:52:40.267Z,99456.28
2023-01-04T06:55:09.823Z,99450.44
2023-01-04T06:57:36.622Z,99446.16
2023-01-04T07:00:05.194Z,99452.84
2023-01-04T07:02:33.088Z,99461.13
2023-01-04T07:05:00.083Z,99455.66
2023-01-04T07:07:27.179Z,99455.66
2023-01-04T07:09:53.976Z,99445.94
2023-01-04T07:12:20.584Z,99436.03
2023-01-04T07:14:48.497Z,99431.31
2023-01-04T07:17:16.039Z,99439.31
2023-01-04T07:19:43.614Z,99426.84
2023-01-04T07:22:10.464Z,99414.34
2023-01-04T07:24:38.211Z,99412.97
2023-01-04T07:27:05.358Z,99402.72
2023-01-04T07:29:32.842Z,99400.38
2023-01-04T07:31:59.600Z,99403.00
2023-01-04T07:34:27.079Z,99403.00
2023-01-04T07:36:55.181Z,99408.94
2023-01-04T07:39:23.210Z,99406.34
2023-01-04T07:41:51.354Z,99420.25
2023-01-04T07:44:18.536Z,99402.66
2023-01-04T07:46:45.481Z,99411.34
2023-01-04T07:49:17.501Z,99404.78
2023-01-04T07:51:45.323Z,99400.06
2023-01-04T07:54:12.772Z,99404.31
2023-01-04T07:56:40.369Z,99402.78
2023-01-04T07:59:09.048Z,99408.50
2023-01-04T08:01:38.281Z,99400.75
2023-01-04T08:04:06.924Z,99397.91
2023-01-04T08:06:34.494Z,99386.97
2023-01-04T08:09:02.013Z,99382.31
2023-01-04T08:11:28.920Z,99388.75
2023-01-04T08:13:56.025Z,99398.03
2023-01-04T08:16:28.425Z,99389.13
2023-01-04T08:18:57.151Z,99384.38
2023-01-04T08:21:24.974Z,99377.38
2023-01-04T08:23:52.448Z,99379.63
2023-01-04T08:26:21.700Z,99389.59
2023-01-04T08:28:50.477Z,99380.22
2023-01-04T08:31:29.943Z,99376.91
2023-01-04T08:33:57.582Z,99380.00
2023-01-04T08:36:27.421Z,99383.34
2023-01-04T08:39:01.719Z,99387.13
2023-01-04T08:44:15.673Z,99377.50
2023-01-04T08:46:42.817Z,99388.09
2023-01-04T08:49:10.127Z,99383.81
2023-01-04T08:51:37.638Z,99374.31
2023-01-04T08:54:05.749Z,99382.06
2023-01-04T08:56:32.487Z,99383.25
2023-01-04T08:58:59.117Z,99375.88
2023-01-04T09:01:26.985Z,99385.63
2023-01-04T09:03:57.733Z,99375.88
2023-01-04T09:06:25.261Z,99379.47
2023-01-04T09:08:53.339Z,99386.34
2023-01-04T09:11:22.054Z,99378.88
2023-01-04T09:13:49.689Z,99375.78
2023-01-04T09:16:18.744Z,99374.56
2023-01-04T09:18:46.233Z,99376.47
2023-01-04T09:21:18.545Z,99365.44
2023-01-04T09:23:46.175Z,99371.03
2023-01-04T09:26:18.760Z,99368.53
2023-01-04T09:28:46.202Z,99352.34
2023-01-04T09:31:16.173Z,99351.41
2023-01-04T09:36:31.932Z,99343.44
2023-01-04T09:38:58.899Z,99336.56
2023-01-04T09:41:28.556Z,99351.03
2023-01-04T09:43:59.065Z,99334.63
2023-01-04T09:46:33.562Z,99334.28
2023-01-04T09:49:16.334Z,99316.81
2023-01-04T09:51:56.175Z,99323.09
2023-01-04T09:54:23.855Z,99329.28
2023-01-04T09:56:58.399Z,99333.94
2023-01-04T09:59:31.889Z,99338.19
2023-01-04T10:02:09.423Z,99325.50
2023-01-04T10:04:48.694Z,99337.50
2023-01-04T10:07:30.180Z,99334.06
2023-01-04T10:09:57.295Z,99343.97
2023-01-04T10:13:07.916Z,99336.31
2023-01-04T10:16:11.531Z,99320.88
2023-01-04T10:20:49.783Z,99310.91
2023-01-04T10:22:28.021Z,99308.19
2023-01-04T10:25:15.907Z,99317.31
2023-01-04T10:28:01.239Z,99317.31
2023-01-04T10:30:36.626Z,99310.66
2023-01-04T10:33:35.321Z,99315.41
2023-01-04T10:36:02.649Z,99295.44
2023-01-04T10:38:36.752Z,99302.59
2023-01-04T10:41:12.109Z,99299.97
2023-01-04T10:44:10.806Z,99293.75
2023-01-04T10:46:46.275Z,99281.06
2023-01-04T10:49:23.674Z,99285.44
2023-01-04T10:52:00.169Z,99275.22
2023-01-04T10:54:54.653Z,99267.72
2023-01-04T10:57:27.086Z,99262.75
2023-01-04T11:00:01.707Z,99260.94
2023-01-04T11:02:37.874Z,99263.78
2023-01-04T11:05:13.475Z,99244.06
2023-01-04T11:08:36.333Z,99245.38
2023-01-04T11:11:17.299Z,99243.72
2023-01-04T11:13:44.314Z,99222.16
2023-01-04T11:16:11.253Z,99230.13
2023-01-04T11:18:39.828Z,99244.88
2023-01-04T11:21:09.963Z,99220.84
2023-01-04T11:23:37.012Z,99225.47
2023-01-04T11:26:11.666Z,99197.38
2023-01-04T11:29:00.972Z,99201.66
2023-01-04T11:32:01.720Z,99198.81
2023-01-04T11:34:49.799Z,99197.16
2023-01-04T11:37:38.096Z,99198.81
2023-01-04T11:40:17.771Z,99203.66
2023-01-04T11:42:49.634Z,99196.38
2023-01-04T11:45:25.897Z,99195.28
2023-01-04T11:47:55.120Z,99199.34
2023-01-04T11:50:35.404Z,99206.22
2023-01-04T11:53:02.695Z,99183.41
2023-01-04T11:55:31.430Z,99178.47
2023-01-04T11:58:17.937Z,99164.09
2023-01-04T12:01:24.082Z,99137.41
2023-01-04T12:03:51.964Z,99164.16
2023-01-04T12:06:33.676Z,99170.25
2023-01-04T12:09:02.955Z,99171.91
2023-01-04T12:11:38.981Z,99155.56
2023-01-04T12:14:24.153Z,99153.28
2023-01-04T12:17:03.314Z,99150.31
2023-01-04T12:19:31.905Z,99134.22
2023-01-04T12:22:01.155Z,99130.06
2023-01-04T12:24:31.100Z,99123.63
2023-01-04T12:26:58.685Z,99118.88
2023-01-04T12:29:25.494Z,99110.53
2023-01-04T12:32:36.388Z,99124.63
2023-01-04T12:35:03.054Z,99122.44
2023-01-04T12:37:59.447Z,99117.53
2023-01-04T12:40:54.807Z,99124.44
2023-01-04T12:43:28.154Z,99116.00
2023-01-04T12:46:47.800Z,99097.97
2023-01-04T12:49:53.968Z,99102.06
2023-01-04T12:52:34.332Z,99089.13
2023-01-04T12:55:25.424Z,99085.53
2023-01-04T12:57:52.218Z,99086.41
2023-01-04T13:00:19.252Z,99077.38
2023-01-04T13:03:07.539Z,99078.53
2023-01-04T13:08:24.677Z,99048.63
2023-01-04T13:10:53.873Z,99054.72
2023-01-04T13:13:57.144Z,99035.97
2023-01-04T13:16:30.831Z,99032.81
2023-01-04T13:18:59.515Z,99025.50
2023-01-04T13:21:45.746Z,99024.22
2023-01-04T13:24:24.354Z,99027.13
2023-01-04T13:26:52.124Z,99017.50
2023-01-04T13:29:37.277Z,99003.44
2023-01-04T13:32:12.567Z,99007.88
2023-01-04T13:35:13.202Z,99007.47
2023-01-04T13:37:47.552Z,99007.72
2023-01-04T13:40:17.219Z,99014.78
2023-01-04T13:42:49.915Z,99018.09
2023-01-04T13:45:33.083Z,99019.47
2023-01-04T13:48:03.570Z,99028.31
2023-01-04T13:50:44.324Z,99005.56
2023-01-04T13:53:20.412Z,99023.63
2023-01-04T13:55:52.293Z,99033.56
2023-01-04T13:58:21.582Z,99010.63
2023-01-04T14:00:59.341Z,98996.31
2023-01-04T14:03:31.241Z,99004.00
2023-01-04T14:06:12.129Z,99001.00
2023-01-04T14:08:55.377Z,98996.00
2023-01-04T14:11:44.337Z,98992.97
2023-01-04T14:14:20.358Z,98987.31
2023-01-04T14:16:47.757Z,98986.19
2023-01-04T14:19:54.769Z,98982.19
2023-01-04T14:22:41.765Z,98989.91
2023-01-04T14:25:49.461Z,98979.72
2023-01-04T14:28:32.587Z,98985.22
2023-01-04T14:31:20.784Z,98992.97
2023-01-04T14:33:51.526Z,98991.31
2023-01-04T14:36:27.213Z,98992.53
2023-01-04T14:39:01.939Z,98975.59
2023-01-04T14:41:34.192Z,98978.88
2023-01-04T14:44:00.800Z,98974.59
2023-01-04T14:46:29.267Z,98968.81
2023-01-04T14:48:56.132Z,98974.44
2023-01-04T14:51:26.518Z,98977.72
2023-01-04T14:53:58.974Z,98973.63
2023-01-04T14:56:25.657Z,98957.75
2023-01-04T14:58:52.508Z,98960.13
2023-01-04T15:01:23.188Z,98959.13
2023-01-04T15:03:50.299Z,98951.28
2023-01-04T15:06:17.431Z,98957.91
2023-01-04T15:08:44.306Z,98949.50
2023-01-04T15:11:12.637Z,98942.88
2023-01-04T15:13:40.034Z,98927.44
2023-01-04T15:16:08.952Z,98920.97
2023-01-04T15:18:35.813Z,98937.25
2023-01-04T15:21:03.722Z,98919.56
2023-01-04T15:23:30.468Z,98931.72
2023-01-04T15:26:00.148Z,98935.84
2023-01-04T15:28:27.200Z,98927.84
2023-01-04T15:30:54.386Z,98933.34
2023-01-04T15:33:21.697Z,98928.94
2023-01-04T15:36:08.390Z,98922.63
2023-01-04T15:38:35.435Z,98912.13
2023-01-04T15:41:32.020Z,98907.13
2023-01-04T15:44:02.747Z,98897.22
2023-01-04T15:46:29.496Z,98906.34
2023-01-04T15:48:56.346Z,98907.00
2023-01-04T15:51:22.985Z,98884.94
2023-01-04T15:53:53.484Z,98895.16
2023-01-04T15:56:20.668Z,98899.97
2023-01-04T15:58:47.779Z,98890.31
2023-01-04T16:01:16.429Z,98898.59
2023-01-04T16:03:44.022Z,98883.41
2023-01-04T16:06:15.930Z,98874.88
2023-01-04T16:08:43.752Z,98874.31
2023-01-04T16:11:12.629Z,98863.16
2023-01-04T16:13:40.113Z,98871.03
2023-01-04T16:16:07.850Z,98869.63
2023-01-04T16:18:34.920Z,98866.88
2023-01-04T16:21:01.687Z,98866.31
2023-01-04T16:23:28.496Z,98861.34
2023-01-04T16:34:31.217Z,98861.34
2023-01-04T16:36:58.384Z,98841.91
2023-01-04T16:39:49.554Z,98837.88
2023-01-04T16:42:11.834Z,98850.97
2023-01-04T16:44:39.483Z,98851.53
2023-01-04T16:47:06.277Z,98849.59
2023-01-04T16:49:33.515Z,98844.09
2023-01-04T16:52:00.186Z,98840.91
2023-01-04T16:54:26.887Z,98845.16
2023-01-04T16:56:56.681Z,98858.56
2023-01-04T16:59:23.431Z,98852.75
2023-01-04T17:01:57.620Z,98856.63
2023-01-04T17:04:25.165Z,98859.66
2023-01-04T17:06:55.161Z,98861.19
2023-01-04T17:09:22.580Z,98875.72
2023-01-04T17:14:49.089Z,98864.38
2023-01-04T17:17:18.859Z,98853.88
2023-01-04T17:19:45.746Z,98855.25
2023-01-04T17:22:12.360Z,98852.47
2023-01-04T17:24:39.358Z,98865.44
2023-01-04T17:27:06.092Z,98872.38
2023-01-04T17:29:32.739Z,98856.63
2023-01-04T17:31:59.888Z,98865.44
2023-01-04T17:34:26.977Z,98868.78
2023-01-04T17:36:53.744Z,98866.03
2023-01-04T17:39:21.158Z,98859.09
2023-01-04T17:41:49.048Z,98869.19
2023-01-04T17:44:16.058Z,98875.94
2023-01-04T17:46:43.533Z,98872.22
2023-01-04T17:49:31.355Z,98856.34
2023-01-04T17:51:58.518Z,98851.06
2023-01-04T17:54:25.861Z,98842.50
2023-01-04T17:56:52.859Z,98827.63
2023-01-04T17:59:19.950Z,98822.78
2023-01-04T18:04:19.292Z,98805.81
2023-01-04T18:06:46.527Z,98810.09
2023-01-04T18:09:20.319Z,98814.22
2023-01-04T18:11:55.964Z,98812.59
2023-01-04T18:14:27.113Z,98810.66
2023-01-04T18:16:57.984Z,98805.25
2023-01-04T18:19:27.694Z,98805.44
2023-01-04T18:21:55.238Z,98794.75
2023-01-04T18:24:35.831Z,98800.00
2023-01-04T18:29:52.636Z,98791.47
2023-01-04T18:32:20.112Z,98778.03
2023-01-04T18:34:46.878Z,98773.50
2023-01-04T18:37:14.671Z,98782.69
2023-01-04T18:39:42.306Z,98781.31
2023-01-04T18:42:09.528Z,98775.38
2023-01-04T18:44:37.826Z,98757.38
2023-01-04T18:47:06.588Z,98752.13
2023-01-04T18:49:33.727Z,98770.88
2023-01-04T18:52:08.402Z,98766.81
2023-01-04T18:54:35.118Z,98760.31
2023-01-04T18:57:02.023Z,98760.06
2023-01-04T18:59:30.689Z,98771.25
2023-01-04T19:02:02.619Z,98781.06
2023-01-04T19:04:32.125Z,98786.84
2023-01-04T19:06:59.027Z,98785.50
2023-01-04T19:09:25.879Z,98779.69
2023-01-04T19:11:52.735Z,98778.06
2023-01-04T19:14:19.513Z,98781.94
2023-01-04T19:16:46.389Z,98781.72
2023-01-04T19:19:13.837Z,98775.22
2023-01-04T19:21:40.630Z,98757.34
2023-01-04T19:24:07.840Z,98760.38
2023-01-04T19:26:35.778Z,98759.09
2023-01-04T19:29:02.403Z,98753.03
2023-01-04T19:31:29.225Z,98734.28
2023-01-04T19:33:55.914Z,98736.19
2023-01-04T19:36:22.638Z,98740.78
2023-01-04T19:38:49.400Z,98744.38
2023-01-04T19:41:31.052Z,98751.22
2023-01-04T19:44:01.232Z,98743.06
2023-01-04T19:46:28.491Z,98744.97
2023-01-04T19:48:55.996Z,98737.69
2023-01-04T19:51:22.769Z,98733.91
2023-01-04T19:53:51.596Z,98745.09
2023-01-04T19:56:18.271Z,98730.69
2023-01-04T19:58:45.041Z,98741.06
2023-01-04T20:01:16.458Z,98734.78
2023-01-04T20:03:43.967Z,98734.63
2023-01-04T20:06:12.472Z,98726.81
2023-01-04T20:08:39.732Z,98757.06
2023-01-04T20:11:08.094Z,98774.84
2023-01-04T20:13:34.923Z,98783.63
2023-01-04T20:16:05.092Z,98769.81
2023-01-04T20:18:32.856Z,98765.94
2023-01-04T20:20:59.891Z,98756.44
2023-01-04T20:23:26.764Z,98761.63
2023-01-04T20:25:55.272Z,98792.41
2023-01-04T20:28:23.701Z,98772.75
2023-01-04T20:31:03.840Z,98764.56
2023-01-04T20:33:31.645Z,98764.38
2023-01-04T20:35:58.888Z,98767.38
2023-01-04T20:38:26.213Z,98769.34
2023-01-04T20:40:52.856Z,98771.16
2023-01-04T20:43:35.068Z,98776.63
2023-01-04T20:46:02.934Z,98777.63
2023-01-04T20:48:29.992Z,98771.88
2023-01-04T20:50:57.569Z,98771.06
2023-01-04T20:53:24.498Z,98763.81
2023-01-04T20:55:51.440Z,98761.22
2023-01-04T20:58:18.677Z,98764.31
2023-01-04T21:00:48.007Z,98764.50
2023-01-04T21:03:16.227Z,98757.50
2023-01-04T21:05:44.830Z,98768.00
2023-01-04T21:08:12.964Z,98768.97
2023-01-04T21:10:41.885Z,98774.69
2023-01-04T21:13:09.047Z,98773.56
2023-01-04T21:15:37.511Z,98774.22
2023-01-04T21:18:05.994Z,98778.25
2023-01-04T21:20:33.296Z,98778.13
2023-01-04T21:22:59.871Z,98784.69
2023-01-04T21:25:26.625Z,98791.22
2023-01-04T21:27:53.948Z,98787.91
2023-01-04T21:30:21.471Z,98791.38
2023-01-04T21:32:48.226Z,98801.22
2023-01-04T21:35:15.207Z,98796.94
2023-01-04T21:37:41.911Z,98789.72
2023-01-04T21:40:09.620Z,98790.81
2023-01-04T21:42:37.038Z,98806.84
2023-01-04T21:45:04.236Z,98800.22
2023-01-04T21:47:31.828Z,98812.56
2023-01-04T21:49:58.780Z,98791.97
2023-01-04T21:52:25.773Z,98780.38
2023-01-04T21:54:52.614Z,98797.28
2023-01-04T21:57:19.824Z,98817.81
2023-01-04T21:59:46.800Z,98800.16
2023-01-04T22:02:15.888Z,98765.97
2023-01-04T22:04:42.897Z,98770.94
2023-01-04T22:07:10.168Z,98771.38
2023-01-04T22:09:36.878Z,98780.63
2023-01-04T22:12:05.418Z,98778.00
2023-01-04T22:14:33.290Z,98777.84
2023-01-04T22:17:00.402Z,98771.38
2023-01-04T22:19:27.526Z,98771.69
2023-01-04T22:21:54.315Z,98787.47
2023-01-04T22:24:21.206Z,98791.97
2023-01-04T22:26:49.753Z,98801.59
2023-01-04T22:29:17.313Z,98789.81
2023-01-04T22:31:44.594Z,98789.63
2023-01-04T22:34:11.261Z,98780.94
2023-01-04T22:36:37.925Z,98786.72
2023-01-04T22:39:05.377Z,98788.66
2023-01-04T22:41:32.087Z,98800.75
2023-01-04T22:44:04.105Z,98794.81
2023-01-04T22:46:32.040Z,98787.22
2023-01-04T22:48:59.874Z,98796.31
2023-01-04T22:51:29.886Z,98809.25
2023-01-04T22:53:58.070Z,98803.75
2023-01-04T22:56:24.907Z,98781.97
2023-01-04T22:58:54.973Z,98782.22
2023-01-04T23:01:31.252Z,98781.94
2023-01-04T23:03:59.284Z,98781.00
2023-01-04T23:06:27.337Z,98789.44
2023-01-04T23:09:02.721Z,98782.06
2023-01-04T23:11:30.665Z,98787.69
2023-01-04T23:13:58.107Z,98780.72
2023-01-04T23:16:31.491Z,98781.53
2023-01-04T23:18:59.042Z,98788.97
2023-01-04T23:21:25.710Z,98772.88
2023-01-04T23:23:52.373Z,98771.25
2023-01-04T23:26:21.886Z,98774.56
2023-01-04T23:28:49.577Z,98775.16
2023-01-04T23:31:19.758Z,98783.63
2023-01-04T23:33:47.862Z,98770.56
2023-01-04T23:36:17.155Z,98771.84
2023-01-04T23:38:44.941Z,98761.03
2023-01-04T23:41:11.993Z,98759.94
2023-01-04T23:43:39.372Z,98764.94
2023-01-04T23:48:37.112Z,98760.22
2023-01-04T23:51:04.406Z,98767.81
2023-01-04T23:53:31.035Z,98754.34
2023-01-04T23:56:07.260Z,98763.72
2023-01-04T23:58:34.854Z,98772.59
